Terminal Aerodrome Forecast
Issued by NWS

Home | Current Version | Previous Version | Text Only | Print | Product List | Glossary On
Versions: 1 2 3 4 5 6 7 8 9 10 11 12 13 14 15 16 17 18 19 20 21 22 23 24 25 26 27 28 29 30 31 32 33 34 35
000
FTUS45 KBOU 181139
TAFBJC
TAF
KBJC 181139Z 1812/1912 27010G20KT P6SM SCT220
      TEMPO 1813/1817 28025G35KT
     FM181700 27012G22KT P6SM FEW140 BKN200
     FM182300 28025G32KT P6SM SCT140 BKN200
     FM190500 27015G25KT P6SM FEW140 BKN200=

USA.gov is the U.S. government's official web portal to all federal, state and local government web resources and services.